createdAt,value
2018-03-30T00:00:31.943Z,99689.57
2018-03-30T00:03:00.440Z,99684.64
2018-03-30T00:05:28.030Z,99685.58
2018-03-30T00:07:55.762Z,99683.68
2018-03-30T00:10:23.360Z,99681.30
2018-03-30T00:12:50.984Z,99682.63
2018-03-30T00:15:18.609Z,99682.54
2018-03-30T00:17:46.214Z,99678.94
2018-03-30T00:20:13.815Z,99681.78
2018-03-30T00:22:41.456Z,99682.70
2018-03-30T00:25:09.053Z,99680.59
2018-03-30T00:27:36.697Z,99682.93
2018-03-30T00:30:04.372Z,99688.87
2018-03-30T00:32:31.982Z,99690.52
2018-03-30T00:34:59.563Z,99695.27
2018-03-30T00:37:27.184Z,99698.31
2018-03-30T00:39:54.809Z,99698.05
2018-03-30T00:42:22.390Z,99699.37
2018-03-30T00:44:50.018Z,99691.88
2018-03-30T00:47:17.597Z,99699.95
2018-03-30T00:49:45.186Z,99693.95
2018-03-30T00:52:12.810Z,99698.62
2018-03-30T00:54:40.398Z,99689.13
2018-03-30T00:57:07.993Z,99694.04
2018-03-30T00:59:35.642Z,99687.20
2018-03-30T01:02:03.228Z,99687.73
2018-03-30T01:04:30.813Z,99697.48
2018-03-30T01:06:58.450Z,99697.98
2018-03-30T01:09:26.034Z,99698.34
2018-03-30T01:11:53.634Z,99702.10
2018-03-30T01:14:21.258Z,99705.36
2018-03-30T01:16:48.849Z,99703.63
2018-03-30T01:19:16.432Z,99703.72
2018-03-30T01:21:44.061Z,99710.89
2018-03-30T01:24:11.646Z,99717.10
2018-03-30T01:26:39.226Z,99710.11
2018-03-30T01:29:06.852Z,99712.61
2018-03-30T01:31:34.434Z,99715.85
2018-03-30T01:34:02.022Z,99721.14
2018-03-30T01:36:29.658Z,99722.80
2018-03-30T01:38:57.251Z,99712.14
2018-03-30T01:41:24.847Z,99722.91
2018-03-30T01:43:52.482Z,99722.91
2018-03-30T01:46:20.074Z,99725.73
2018-03-30T01:48:47.692Z,99730.14
2018-03-30T01:51:15.320Z,99727.98
2018-03-30T01:53:42.906Z,99728.25
2018-03-30T01:56:10.499Z,99731.56
2018-03-30T01:58:38.122Z,99732.70
2018-03-30T02:01:05.718Z,99732.45
2018-03-30T02:03:33.304Z,99741.73
2018-03-30T02:06:00.933Z,99733.87
2018-03-30T02:08:28.548Z,99733.63
2018-03-30T02:10:56.132Z,99743.48
2018-03-30T02:13:23.760Z,99736.78
2018-03-30T02:15:51.386Z,99743.98
2018-03-30T02:18:19.071Z,99758.70
2018-03-30T02:20:46.702Z,99749.52
2018-03-30T02:23:14.286Z,99749.42
2018-03-30T02:25:41.884Z,99754.97
2018-03-30T02:28:09.505Z,99758.88
2018-03-30T02:30:37.101Z,99754.89
2018-03-30T02:33:04.702Z,99749.69
2018-03-30T02:35:32.382Z,99749.02
2018-03-30T02:37:59.983Z,99748.52
2018-03-30T02:40:27.584Z,99752.06
2018-03-30T02:42:55.214Z,99758.13
2018-03-30T02:45:22.799Z,99764.39
2018-03-30T02:47:50.403Z,99765.71
2018-03-30T02:50:18.024Z,99760.08
2018-03-30T02:52:45.617Z,99766.93
2018-03-30T02:55:13.239Z,99768.77
2018-03-30T02:57:40.872Z,99762.50
2018-03-30T03:00:08.458Z,99764.15
2018-03-30T03:02:36.065Z,99779.02
2018-03-30T03:05:03.698Z,99775.08
2018-03-30T03:07:31.295Z,99779.03
2018-03-30T03:09:58.904Z,99789.27
2018-03-30T03:12:26.527Z,99791.66
2018-03-30T03:14:54.123Z,99788.84
2018-03-30T03:17:21.735Z,99794.45
2018-03-30T03:19:49.366Z,99791.78
2018-03-30T03:22:16.972Z,99792.20
2018-03-30T03:24:44.663Z,99792.63
2018-03-30T03:27:12.303Z,99798.41
2018-03-30T03:29:39.898Z,99803.42
2018-03-30T03:32:07.491Z,99807.28
2018-03-30T03:34:35.117Z,99817.78
2018-03-30T03:37:02.729Z,99813.31
2018-03-30T03:39:30.314Z,99817.22
2018-03-30T03:41:57.940Z,99818.84
2018-03-30T03:44:25.530Z,99822.95
2018-03-30T03:46:53.167Z,99825.83
2018-03-30T03:49:20.783Z,99824.31
2018-03-30T03:51:48.381Z,99831.44
2018-03-30T03:54:16.000Z,99826.65
2018-03-30T03:56:43.628Z,99826.63
2018-03-30T03:59:11.218Z,99834.22
2018-03-30T04:01:38.797Z,99825.96
2018-03-30T04:04:06.418Z,99831.00
2018-03-30T04:06:34.037Z,99832.16
2018-03-30T04:09:01.634Z,99826.45
2018-03-30T04:11:29.270Z,99822.27
2018-03-30T04:13:56.874Z,99822.57
2018-03-30T04:16:24.492Z,99820.95
2018-03-30T04:18:52.119Z,99825.33
2018-03-30T04:21:19.720Z,99821.08
2018-03-30T04:23:47.332Z,99818.73
2018-03-30T04:26:14.995Z,99812.22
2018-03-30T04:28:42.590Z,99802.84
2018-03-30T04:31:10.192Z,99808.38
2018-03-30T04:33:37.801Z,99798.64
2018-03-30T04:36:05.416Z,99816.80
2018-03-30T04:38:32.995Z,99812.86
2018-03-30T04:41:00.615Z,99810.75
2018-03-30T04:43:28.202Z,99816.59
2018-03-30T04:45:55.786Z,99829.11
2018-03-30T04:48:23.437Z,99827.70
2018-03-30T04:50:51.089Z,99838.36
2018-03-30T04:53:18.687Z,99828.65
2018-03-30T04:55:46.323Z,99830.88
2018-03-30T04:58:13.934Z,99839.20
2018-03-30T05:00:41.564Z,99841.30
2018-03-30T05:03:09.190Z,99842.98
2018-03-30T05:05:36.773Z,99845.20
2018-03-30T05:08:04.363Z,99844.70
2018-03-30T05:10:32.071Z,99847.02
2018-03-30T05:12:59.705Z,99843.06
2018-03-30T05:15:27.307Z,99846.33
2018-03-30T05:17:54.944Z,99847.45
2018-03-30T05:20:22.595Z,99848.78
2018-03-30T05:22:50.247Z,99857.41
2018-03-30T05:25:17.983Z,99865.41
2018-03-30T05:27:45.578Z,99860.62
2018-03-30T05:30:13.201Z,99856.55
2018-03-30T05:32:40.826Z,99848.09
2018-03-30T05:35:08.437Z,99850.37
2018-03-30T05:37:36.032Z,99849.20
2018-03-30T05:40:03.674Z,99852.89
2018-03-30T05:42:31.270Z,99855.59
2018-03-30T05:44:58.880Z,99864.62
2018-03-30T05:47:26.509Z,99861.98
2018-03-30T05:49:54.111Z,99862.12
2018-03-30T05:52:21.731Z,99866.63
2018-03-30T05:54:49.383Z,99869.91
2018-03-30T05:57:16.987Z,99873.56
2018-03-30T05:59:44.591Z,99869.19
2018-03-30T06:02:12.223Z,99872.00
2018-03-30T06:04:40.383Z,99874.37
2018-03-30T06:07:07.975Z,99870.13
2018-03-30T06:09:35.609Z,99877.41
2018-03-30T06:12:03.213Z,99871.37
2018-03-30T06:14:30.816Z,99877.00
2018-03-30T06:16:58.467Z,99867.95
2018-03-30T06:19:26.078Z,99870.06
2018-03-30T06:21:53.862Z,99873.08
2018-03-30T06:24:21.491Z,99867.90
2018-03-30T06:26:49.221Z,99869.22
2018-03-30T06:29:19.715Z,99852.77
2018-03-30T06:31:47.390Z,99857.27
2018-03-30T06:34:14.986Z,99854.98
2018-03-30T06:36:42.613Z,99853.25
2018-03-30T06:39:10.250Z,99856.64
2018-03-30T06:41:37.860Z,99858.39
2018-03-30T06:44:05.528Z,99860.71
2018-03-30T06:46:34.271Z,99857.48
2018-03-30T06:49:01.878Z,99863.33
2018-03-30T06:51:29.470Z,99868.88
2018-03-30T06:53:57.139Z,99870.06
2018-03-30T06:56:24.738Z,99864.81
2018-03-30T06:58:52.335Z,99863.84
2018-03-30T07:01:20.002Z,99867.58
2018-03-30T07:03:48.469Z,99862.81
2018-03-30T07:06:16.074Z,99864.42
2018-03-30T07:08:43.718Z,99866.05
2018-03-30T07:11:11.310Z,99863.30
2018-03-30T07:13:38.963Z,99866.45
2018-03-30T07:16:06.636Z,99863.71
2018-03-30T07:18:34.274Z,99860.61
2018-03-30T07:21:01.882Z,99866.81
2018-03-30T07:23:29.532Z,99861.09
2018-03-30T07:25:57.134Z,99852.01
2018-03-30T07:28:24.747Z,99852.17
2018-03-30T07:30:52.385Z,99865.63
2018-03-30T07:33:19.978Z,99856.95
2018-03-30T07:35:47.584Z,99868.09
2018-03-30T07:38:21.057Z,99868.80
2018-03-30T07:40:48.671Z,99871.00
2018-03-30T07:43:16.295Z,99868.56
2018-03-30T07:45:44.640Z,99868.53
2018-03-30T07:48:12.274Z,99864.97
2018-03-30T07:50:39.917Z,99867.49
2018-03-30T07:53:07.596Z,99864.39
2018-03-30T07:55:35.239Z,99861.73
2018-03-30T07:58:02.882Z,99861.13
2018-03-30T08:00:30.583Z,99854.73
2018-03-30T08:02:58.249Z,99858.43
2018-03-30T08:05:25.888Z,99857.47
2018-03-30T08:07:53.522Z,99855.11
2018-03-30T08:10:21.539Z,99864.42
2018-03-30T08:12:49.130Z,99858.03
2018-03-30T08:15:16.758Z,99852.67
2018-03-30T08:17:44.349Z,99853.44
2018-03-30T08:20:11.941Z,99856.22
2018-03-30T08:22:39.571Z,99856.56
2018-03-30T08:25:07.267Z,99848.41
2018-03-30T08:27:34.854Z,99854.81
2018-03-30T08:30:02.488Z,99849.16
2018-03-30T08:32:30.125Z,99839.20
2018-03-30T08:34:57.714Z,99843.68
2018-03-30T08:37:25.379Z,99847.42
2018-03-30T08:39:52.978Z,99843.61
2018-03-30T08:42:20.694Z,99840.09
2018-03-30T08:44:48.320Z,99845.36
2018-03-30T08:47:15.923Z,99844.69
2018-03-30T08:49:43.560Z,99840.44
2018-03-30T08:52:11.156Z,99832.02
2018-03-30T08:54:38.753Z,99825.37
2018-03-30T08:57:06.380Z,99833.23
2018-03-30T08:59:33.954Z,99827.44
2018-03-30T09:02:01.548Z,99837.81
2018-03-30T09:04:29.151Z,99832.08
2018-03-30T09:06:56.743Z,99828.45
2018-03-30T09:09:24.343Z,99825.24
2018-03-30T09:11:51.949Z,99812.73
2018-03-30T09:14:19.626Z,99815.53
2018-03-30T09:16:47.210Z,99824.52
2018-03-30T09:19:14.921Z,99815.05
2018-03-30T09:21:42.511Z,99814.08
2018-03-30T09:24:10.182Z,99805.55
2018-03-30T09:26:37.789Z,99796.14
2018-03-30T09:29:05.379Z,99797.86
2018-03-30T09:31:32.989Z,99795.70
2018-03-30T09:34:00.595Z,99801.19
2018-03-30T09:36:28.157Z,99801.78
2018-03-30T09:38:55.730Z,99808.42
2018-03-30T09:41:23.364Z,99798.42
2018-03-30T09:43:50.954Z,99805.47
2018-03-30T09:46:18.535Z,99800.88
2018-03-30T09:48:46.137Z,99791.02
2018-03-30T09:51:13.715Z,99793.36
2018-03-30T09:53:41.297Z,99793.27
2018-03-30T09:56:08.911Z,99789.78
2018-03-30T09:58:36.504Z,99776.91
2018-03-30T10:01:09.697Z,99777.70
2018-03-30T10:03:41.194Z,99773.81
2018-03-30T10:06:08.800Z,99772.47
2018-03-30T10:08:36.416Z,99772.30
2018-03-30T10:11:03.991Z,99771.03
2018-03-30T10:13:31.566Z,99770.36
2018-03-30T10:15:59.381Z,99771.55
2018-03-30T10:18:26.980Z,99767.09
2018-03-30T10:20:54.575Z,99768.53
2018-03-30T10:23:22.180Z,99763.75
2018-03-30T10:25:49.753Z,99757.91
2018-03-30T10:28:17.505Z,99753.85
2018-03-30T10:30:45.149Z,99739.12
2018-03-30T10:33:12.713Z,99740.18
2018-03-30T10:35:40.283Z,99740.48
2018-03-30T10:38:07.898Z,99742.92
2018-03-30T10:40:35.481Z,99734.81
2018-03-30T10:43:03.126Z,99740.98
2018-03-30T10:45:30.743Z,99742.00
2018-03-30T10:47:58.321Z,99738.66
2018-03-30T10:50:25.920Z,99742.22
2018-03-30T10:52:53.530Z,99737.73
2018-03-30T10:55:21.106Z,99723.44
2018-03-30T10:57:48.696Z,99735.61
2018-03-30T11:00:16.319Z,99732.60
2018-03-30T11:02:43.900Z,99733.19
2018-03-30T11:05:11.532Z,99732.06
2018-03-30T11:07:39.119Z,99739.43
2018-03-30T11:10:06.721Z,99730.55
2018-03-30T11:12:34.281Z,99738.29
2018-03-30T11:15:01.903Z,99744.63
2018-03-30T11:17:29.474Z,99739.42
2018-03-30T11:19:57.044Z,99733.87
2018-03-30T11:22:24.663Z,99721.93
2018-03-30T11:24:52.238Z,99734.83
2018-03-30T11:27:19.830Z,99727.82
2018-03-30T11:29:47.431Z,99723.23
2018-03-30T11:32:15.010Z,99725.16
2018-03-30T11:34:42.599Z,99706.72
2018-03-30T11:37:10.203Z,99705.16
2018-03-30T11:39:37.770Z,99704.98
2018-03-30T11:42:05.336Z,99706.20
2018-03-30T11:44:32.944Z,99693.72
2018-03-30T11:47:00.573Z,99690.69
2018-03-30T11:49:28.158Z,99683.45
2018-03-30T11:51:55.750Z,99679.28
2018-03-30T11:54:23.335Z,99675.58
2018-03-30T11:56:50.916Z,99682.11
2018-03-30T11:59:18.528Z,99682.94
2018-03-30T12:01:46.106Z,99682.28
2018-03-30T12:04:13.691Z,99680.95
2018-03-30T12:06:41.297Z,99687.06
2018-03-30T12:09:08.857Z,99674.73
2018-03-30T12:11:36.438Z,99670.76
2018-03-30T12:14:04.085Z,99668.89
2018-03-30T12:16:31.655Z,99669.14
2018-03-30T12:18:59.228Z,99664.33
2018-03-30T12:21:26.819Z,99658.59
2018-03-30T12:23:54.390Z,99660.39
2018-03-30T12:26:21.958Z,99662.49
2018-03-30T12:28:49.563Z,99661.97
2018-03-30T12:31:17.140Z,99648.84
2018-03-30T12:33:44.715Z,99647.72
2018-03-30T12:36:12.300Z,99650.28
2018-03-30T12:38:39.872Z,99644.70
2018-03-30T12:41:07.462Z,99639.22
2018-03-30T12:43:35.179Z,99639.88
2018-03-30T12:46:02.738Z,99634.22
2018-03-30T12:48:30.308Z,99633.92
2018-03-30T12:50:57.914Z,99643.96
2018-03-30T12:53:25.481Z,99650.25
2018-03-30T12:55:53.063Z,99649.96
2018-03-30T12:58:20.715Z,99642.70
2018-03-30T13:00:50.170Z,99636.41
2018-03-30T13:03:20.913Z,99642.97
2018-03-30T13:05:50.345Z,99631.52
2018-03-30T13:08:18.989Z,99630.31
2018-03-30T13:10:47.715Z,99628.63
2018-03-30T13:13:17.045Z,99622.90
2018-03-30T13:15:45.994Z,99621.80
2018-03-30T13:18:15.175Z,99619.64
2018-03-30T13:20:43.134Z,99613.52
2018-03-30T13:23:10.754Z,99611.52
2018-03-30T13:25:38.351Z,99606.64
2018-03-30T13:28:05.970Z,99608.61
2018-03-30T13:30:33.547Z,99616.91
2018-03-30T13:33:01.127Z,99612.53
2018-03-30T13:35:28.734Z,99613.64
2018-03-30T13:37:56.314Z,99605.39
2018-03-30T13:40:23.885Z,99607.95
2018-03-30T13:42:51.482Z,99605.41
2018-03-30T13:45:19.529Z,99603.77
2018-03-30T13:47:47.118Z,99599.70
2018-03-30T13:50:15.654Z,99607.59
2018-03-30T13:56:02.842Z,99596.36
2018-03-30T13:58:36.110Z,99593.30
2018-03-30T14:01:05.587Z,99591.02
2018-03-30T14:03:41.747Z,99592.91
2018-03-30T14:06:29.821Z,99600.31
2018-03-30T14:09:12.336Z,99593.84
2018-03-30T14:11:46.981Z,99595.26
2018-03-30T14:14:14.578Z,99573.80
2018-03-30T14:16:45.125Z,99587.87
2018-03-30T14:19:12.862Z,99589.48
2018-03-30T14:21:50.397Z,99580.85
2018-03-30T14:24:22.600Z,99588.99
2018-03-30T14:26:50.241Z,99584.98
2018-03-30T14:29:20.693Z,99584.64
2018-03-30T14:31:59.517Z,99577.95
2018-03-30T14:34:27.964Z,99581.41
2018-03-30T14:36:59.499Z,99576.91
2018-03-30T14:42:27.129Z,99573.14
2018-03-30T14:44:54.739Z,99571.77
2018-03-30T14:47:23.249Z,99582.25
2018-03-30T14:50:00.302Z,99576.19
2018-03-30T14:52:31.875Z,99580.06
2018-03-30T14:55:16.180Z,99581.14
2018-03-30T14:57:45.684Z,99577.45
2018-03-30T15:00:21.100Z,99577.50
2018-03-30T15:02:49.504Z,99578.10
2018-03-30T15:08:32.574Z,99568.58
2018-03-30T15:14:16.660Z,99568.58
2018-03-30T15:16:47.050Z,99568.11
2018-03-30T15:19:15.443Z,99566.65
2018-03-30T15:22:01.638Z,99558.58
2018-03-30T15:24:36.035Z,99567.61
2018-03-30T15:27:14.536Z,99566.40
2018-03-30T15:29:45.925Z,99555.66
2018-03-30T15:32:17.247Z,99569.72
2018-03-30T15:34:44.889Z,99571.72
2018-03-30T15:37:16.509Z,99565.91
2018-03-30T15:39:54.804Z,99569.53
2018-03-30T15:42:23.473Z,99566.70
2018-03-30T15:44:51.224Z,99569.48
2018-03-30T15:47:18.888Z,99585.16
2018-03-30T15:49:51.206Z,99592.54
2018-03-30T15:52:19.835Z,99583.84
2018-03-30T15:54:47.507Z,99596.31
2018-03-30T15:57:15.386Z,99599.20
2018-03-30T15:59:43.251Z,99610.84
2018-03-30T16:02:11.528Z,99611.09
2018-03-30T16:04:39.141Z,99607.41
2018-03-30T16:07:06.858Z,99616.86
2018-03-30T16:09:42.185Z,99614.42
2018-03-30T16:12:09.960Z,99607.67
2018-03-30T16:14:37.587Z,99618.72
2018-03-30T16:17:05.276Z,99617.11
2018-03-30T16:19:32.514Z,99621.98
2018-03-30T16:21:59.559Z,99619.92
2018-03-30T16:24:26.646Z,99622.48
2018-03-30T16:26:53.861Z,99620.30
2018-03-30T16:29:20.897Z,99639.99
2018-03-30T16:31:48.421Z,99635.44
2018-03-30T16:34:15.666Z,99635.34
2018-03-30T16:36:42.878Z,99638.55
2018-03-30T16:39:09.966Z,99636.44
2018-03-30T16:41:37.184Z,99647.33
2018-03-30T16:44:04.272Z,99648.05
2018-03-30T16:46:31.380Z,99652.53
2018-03-30T16:48:58.585Z,99648.45
2018-03-30T16:51:26.020Z,99652.05
2018-03-30T16:53:53.076Z,99658.42
2018-03-30T16:56:20.251Z,99659.95
2018-03-30T16:58:47.317Z,99666.49
2018-03-30T17:01:14.582Z,99653.88
2018-03-30T17:03:41.610Z,99663.39
2018-03-30T17:06:09.727Z,99665.16
2018-03-30T17:08:36.792Z,99667.34
2018-03-30T17:11:04.000Z,99666.41
2018-03-30T17:13:31.071Z,99671.70
2018-03-30T17:15:58.138Z,99644.28
2018-03-30T17:18:25.182Z,99672.91
2018-03-30T17:20:52.203Z,99667.48
2018-03-30T17:23:19.259Z,99670.32
2018-03-30T17:25:46.301Z,99673.98
2018-03-30T17:28:13.343Z,99681.03
2018-03-30T17:30:40.595Z,99681.56
2018-03-30T17:33:07.849Z,99687.96
2018-03-30T17:35:34.888Z,99710.45
2018-03-30T17:38:02.079Z,99688.45
2018-03-30T17:40:29.122Z,99700.40
2018-03-30T17:42:56.156Z,99702.94
2018-03-30T17:45:23.287Z,99704.04
2018-03-30T17:47:50.354Z,99705.52
2018-03-30T17:50:17.393Z,99703.75
2018-03-30T17:52:44.633Z,99707.55
2018-03-30T17:55:11.672Z,99714.19
2018-03-30T17:57:38.720Z,99696.80
2018-03-30T18:00:06.000Z,99704.37
2018-03-30T18:02:33.037Z,99712.64
2018-03-30T18:05:00.058Z,99700.42
2018-03-30T18:07:27.124Z,99704.43
2018-03-30T18:09:54.171Z,99716.69
2018-03-30T18:12:21.232Z,99723.17
2018-03-30T18:14:48.492Z,99712.86
2018-03-30T18:17:15.525Z,99705.38
2018-03-30T18:19:42.672Z,99733.09
2018-03-30T18:22:09.805Z,99717.91
2018-03-30T18:24:36.838Z,99720.33
2018-03-30T18:27:03.923Z,99715.86
2018-03-30T18:29:31.018Z,99720.33
2018-03-30T18:31:58.050Z,99719.34
2018-03-30T18:34:25.176Z,99724.26
2018-03-30T18:36:52.423Z,99722.02
2018-03-30T18:39:19.471Z,99728.42
2018-03-30T18:41:46.714Z,99737.41
2018-03-30T18:44:13.800Z,99723.72
2018-03-30T18:46:40.834Z,99733.78
2018-03-30T18:49:07.861Z,99725.89
2018-03-30T18:51:35.115Z,99736.73
2018-03-30T18:54:02.273Z,99728.79
2018-03-30T18:56:29.417Z,99741.22
2018-03-30T18:58:56.681Z,99739.05
2018-03-30T19:01:23.739Z,99729.97
2018-03-30T19:03:50.784Z,99729.64
2018-03-30T19:06:17.838Z,99736.83
2018-03-30T19:08:44.872Z,99736.52
2018-03-30T19:11:12.121Z,99729.88
2018-03-30T19:13:39.200Z,99729.43
2018-03-30T19:16:06.280Z,99729.97
2018-03-30T19:18:33.313Z,99736.41
2018-03-30T19:38:05.997Z,99722.34
2018-03-30T19:40:33.033Z,99719.37
2018-03-30T19:43:00.471Z,99714.95
2018-03-30T19:45:27.758Z,99724.59
2018-03-30T19:47:54.810Z,99715.08
2018-03-30T19:50:21.938Z,99725.05
2018-03-30T19:52:49.270Z,99724.24
2018-03-30T19:55:16.369Z,99722.52
2018-03-30T19:57:43.598Z,99722.44
2018-03-30T20:00:10.664Z,99727.66
2018-03-30T20:02:37.919Z,99729.41
2018-03-30T20:05:04.961Z,99728.82
2018-03-30T20:07:32.210Z,99728.82
2018-03-30T20:09:59.281Z,99732.34
2018-03-30T20:12:26.930Z,99727.88
2018-03-30T20:14:54.591Z,99731.80
2018-03-30T20:17:21.829Z,99730.72
2018-03-30T20:19:50.327Z,99726.52
2018-03-30T20:22:19.672Z,99722.02
2018-03-30T20:24:46.690Z,99729.44
2018-03-30T20:27:15.414Z,99724.52
2018-03-30T20:29:42.614Z,99726.00
2018-03-30T20:32:09.660Z,99736.92
2018-03-30T20:34:37.081Z,99730.62
2018-03-30T20:37:04.359Z,99730.45
2018-03-30T20:39:31.606Z,99735.52
2018-03-30T20:41:59.031Z,99725.27
2018-03-30T20:44:26.319Z,99730.41
2018-03-30T20:46:53.566Z,99732.43
2018-03-30T20:49:20.614Z,99731.13
2018-03-30T20:51:47.887Z,99729.13
2018-03-30T20:54:15.049Z,99731.97
2018-03-30T20:56:42.205Z,99725.75
2018-03-30T20:59:09.426Z,99733.86
2018-03-30T21:01:36.670Z,99730.05
2018-03-30T21:04:03.719Z,99732.09
2018-03-30T21:06:30.877Z,99732.70
2018-03-30T21:08:57.939Z,99732.01
2018-03-30T21:11:24.986Z,99729.38
2018-03-30T21:13:52.128Z,99723.48
2018-03-30T21:16:19.383Z,99720.59
2018-03-30T21:18:46.630Z,99716.83
2018-03-30T21:21:13.733Z,99725.89
2018-03-30T21:23:40.786Z,99731.34
2018-03-30T21:26:07.831Z,99732.30
2018-03-30T21:28:35.027Z,99733.87
2018-03-30T21:31:02.072Z,99724.33
2018-03-30T21:33:29.112Z,99726.50
2018-03-30T21:35:56.387Z,99721.59
2018-03-30T21:38:23.616Z,99714.86
2018-03-30T21:40:50.673Z,99723.63
2018-03-30T21:43:17.930Z,99722.69
2018-03-30T21:45:44.951Z,99715.53
2018-03-30T21:48:11.989Z,99724.11
2018-03-30T21:50:39.290Z,99720.24
2018-03-30T21:53:06.529Z,99712.20
2018-03-30T21:55:33.795Z,99716.33
2018-03-30T21:58:00.883Z,99717.48
2018-03-30T22:00:28.094Z,99714.05
2018-03-30T22:02:55.134Z,99716.47
2018-03-30T22:05:22.206Z,99718.28
2018-03-30T22:07:49.437Z,99713.55
2018-03-30T22:10:16.677Z,99712.14
2018-03-30T22:12:43.880Z,99707.12
2018-03-30T22:15:10.981Z,99714.44
2018-03-30T22:17:38.293Z,99708.91
2018-03-30T22:22:37.448Z,99708.14
2018-03-30T22:25:04.715Z,99695.04
2018-03-30T22:27:31.952Z,99704.43
2018-03-30T22:29:59.022Z,99694.61
2018-03-30T22:32:26.064Z,99699.53
2018-03-30T22:34:53.325Z,99703.61
2018-03-30T22:37:20.378Z,99699.36
2018-03-30T22:39:47.422Z,99696.42
2018-03-30T22:42:14.637Z,99692.86
2018-03-30T22:44:41.698Z,99690.38
2018-03-30T22:47:08.743Z,99686.23
2018-03-30T22:49:35.813Z,99690.77
2018-03-30T22:52:02.858Z,99684.48
2018-03-30T22:54:29.899Z,99685.42
2018-03-30T22:56:57.156Z,99685.42
2018-03-30T22:59:24.232Z,99684.48
2018-03-30T23:01:51.443Z,99682.13
2018-03-30T23:04:18.695Z,99677.24
2018-03-30T23:06:46.153Z,99669.48
2018-03-30T23:09:13.236Z,99682.53
2018-03-30T23:11:40.352Z,99675.91
2018-03-30T23:14:07.500Z,99676.66
2018-03-30T23:16:34.763Z,99675.51
2018-03-30T23:19:02.042Z,99671.02
2018-03-30T23:21:29.101Z,99671.16
2018-03-30T23:23:56.306Z,99666.43
2018-03-30T23:26:23.618Z,99656.82
2018-03-30T23:28:50.827Z,99657.91
2018-03-30T23:31:17.910Z,99657.59
2018-03-30T23:33:45.126Z,99655.52
2018-03-30T23:36:12.367Z,99656.46
2018-03-30T23:38:39.457Z,99651.95
2018-03-30T23:41:06.545Z,99651.35
2018-03-30T23:43:33.592Z,99640.83
2018-03-30T23:46:00.641Z,99644.75
2018-03-30T23:48:27.971Z,99640.47
2018-03-30T23:50:55.067Z,99637.63
2018-03-30T23:53:22.123Z,99635.01
2018-03-30T23:55:49.363Z,99634.00
2018-03-30T23:58:16.563Z,99632.16
